sensor_id;sensor_type;location;lat;lon;timestamp;P1;durP1;ratioP1;P2;durP2;ratioP2
15246;SDS011;7726;48.820;9.248;2023-02-01T00:00:16;3.10;;;2.60;;
15246;SDS011;7726;48.820;9.248;2023-02-01T00:02:43;2.60;;;2.40;;
15246;SDS011;7726;48.820;9.248;2023-02-01T00:05:10;3.77;;;2.50;;
15246;SDS011;7726;48.820;9.248;2023-02-01T00:07:38;3.13;;;2.37;;
15246;SDS011;7726;48.820;9.248;2023-02-01T00:10:05;3.03;;;2.73;;
15246;SDS011;7726;48.820;9.248;2023-02-01T00:12:33;4.10;;;2.50;;
15246;SDS011;7726;48.820;9.248;2023-02-01T00:15:02;3.10;;;2.80;;
15246;SDS011;7726;48.820;9.248;2023-02-01T00:17:29;3.83;;;2.70;;
15246;SDS011;7726;48.820;9.248;2023-02-01T00:19:56;2.50;;;2.30;;
15246;SDS011;7726;48.820;9.248;2023-02-01T00:22:23;2.83;;;2.20;;
15246;SDS011;7726;48.820;9.248;2023-02-01T00:24:50;3.10;;;2.40;;
15246;SDS011;7726;48.820;9.248;2023-02-01T00:27:17;2.47;;;2.27;;
15246;SDS011;7726;48.820;9.248;2023-02-01T00:29:46;3.00;;;2.47;;
15246;SDS011;7726;48.820;9.248;2023-02-01T00:32:14;2.83;;;2.57;;
15246;SDS011;7726;48.820;9.248;2023-02-01T00:34:42;2.87;;;2.57;;
15246;SDS011;7726;48.820;9.248;2023-02-01T00:37:09;2.70;;;2.43;;
15246;SDS011;7726;48.820;9.248;2023-02-01T00:39:36;2.87;;;2.30;;
15246;SDS011;7726;48.820;9.248;2023-02-01T00:42:03;3.40;;;2.13;;
15246;SDS011;7726;48.820;9.248;2023-02-01T00:44:30;2.80;;;2.50;;
15246;SDS011;7726;48.820;9.248;2023-02-01T00:46:59;2.47;;;2.00;;
15246;SDS011;7726;48.820;9.248;2023-02-01T00:49:28;2.83;;;2.10;;
15246;SDS011;7726;48.820;9.248;2023-02-01T00:51:55;2.87;;;2.13;;
15246;SDS011;7726;48.820;9.248;2023-02-01T00:54:22;2.40;;;2.20;;
15246;SDS011;7726;48.820;9.248;2023-02-01T00:56:49;2.27;;;1.87;;
15246;SDS011;7726;48.820;9.248;2023-02-01T00:59:16;2.40;;;2.20;;
15246;SDS011;7726;48.820;9.248;2023-02-01T01:01:44;2.00;;;1.90;;
15246;SDS011;7726;48.820;9.248;2023-02-01T01:04:11;1.97;;;1.87;;
15246;SDS011;7726;48.820;9.248;2023-02-01T01:06:39;2.27;;;2.07;;
15246;SDS011;7726;48.820;9.248;2023-02-01T01:09:06;3.47;;;2.07;;
15246;SDS011;7726;48.820;9.248;2023-02-01T01:11:34;2.60;;;2.07;;
15246;SDS011;7726;48.820;9.248;2023-02-01T01:14:02;2.77;;;2.10;;
15246;SDS011;7726;48.820;9.248;2023-02-01T01:16:31;2.13;;;1.87;;
15246;SDS011;7726;48.820;9.248;2023-02-01T01:18:58;1.67;;;1.57;;
15246;SDS011;7726;48.820;9.248;2023-02-01T01:21:26;1.90;;;1.70;;
15246;SDS011;7726;48.820;9.248;2023-02-01T01:23:55;2.27;;;1.83;;
15246;SDS011;7726;48.820;9.248;2023-02-01T01:26:22;2.07;;;1.87;;
15246;SDS011;7726;48.820;9.248;2023-02-01T01:28:54;1.83;;;1.73;;
15246;SDS011;7726;48.820;9.248;2023-02-01T01:31:21;2.00;;;1.80;;
15246;SDS011;7726;48.820;9.248;2023-02-01T01:33:49;2.20;;;1.70;;
15246;SDS011;7726;48.820;9.248;2023-02-01T01:36:16;1.90;;;1.80;;
15246;SDS011;7726;48.820;9.248;2023-02-01T01:38:44;1.37;;;1.27;;
15246;SDS011;7726;48.820;9.248;2023-02-01T01:41:14;2.00;;;1.43;;
15246;SDS011;7726;48.820;9.248;2023-02-01T01:43:48;2.13;;;1.73;;
15246;SDS011;7726;48.820;9.248;2023-02-01T01:46:16;1.60;;;1.50;;
15246;SDS011;7726;48.820;9.248;2023-02-01T01:48:44;1.60;;;1.50;;
15246;SDS011;7726;48.820;9.248;2023-02-01T01:51:12;1.63;;;1.40;;
15246;SDS011;7726;48.820;9.248;2023-02-01T01:53:42;1.50;;;1.40;;
15246;SDS011;7726;48.820;9.248;2023-02-01T01:56:10;1.40;;;1.30;;
15246;SDS011;7726;48.820;9.248;2023-02-01T01:58:38;1.40;;;1.30;;
15246;SDS011;7726;48.820;9.248;2023-02-01T02:01:06;1.70;;;1.60;;
15246;SDS011;7726;48.820;9.248;2023-02-01T02:03:34;1.30;;;1.20;;
15246;SDS011;7726;48.820;9.248;2023-02-01T02:06:02;1.33;;;1.20;;
15246;SDS011;7726;48.820;9.248;2023-02-01T02:08:32;1.30;;;1.20;;
15246;SDS011;7726;48.820;9.248;2023-02-01T02:11:00;1.17;;;1.17;;
15246;SDS011;7726;48.820;9.248;2023-02-01T02:13:27;1.60;;;1.50;;
15246;SDS011;7726;48.820;9.248;2023-02-01T02:16:12;1.30;;;1.20;;
15246;SDS011;7726;48.820;9.248;2023-02-01T02:18:44;1.73;;;1.40;;
15246;SDS011;7726;48.820;9.248;2023-02-01T02:21:17;1.40;;;1.30;;
15246;SDS011;7726;48.820;9.248;2023-02-01T02:26:36;1.23;;;1.13;;
15246;SDS011;7726;48.820;9.248;2023-02-01T02:34:50;1.60;;;1.50;;
15246;SDS011;7726;48.820;9.248;2023-02-01T02:37:21;1.60;;;1.50;;
15246;SDS011;7726;48.820;9.248;2023-02-01T02:39:53;1.70;;;1.60;;
15246;SDS011;7726;48.820;9.248;2023-02-01T02:42:25;1.40;;;1.27;;
15246;SDS011;7726;48.820;9.248;2023-02-01T02:45:13;3.03;;;1.67;;
15246;SDS011;7726;48.820;9.248;2023-02-01T02:48:00;2.00;;;1.90;;
15246;SDS011;7726;48.820;9.248;2023-02-01T02:50:32;1.93;;;1.70;;
15246;SDS011;7726;48.820;9.248;2023-02-01T02:53:19;1.27;;;1.23;;
15246;SDS011;7726;48.820;9.248;2023-02-01T02:56:06;1.53;;;1.43;;
15246;SDS011;7726;48.820;9.248;2023-02-01T02:58:52;1.90;;;1.67;;
15246;SDS011;7726;48.820;9.248;2023-02-01T03:01:36;1.77;;;1.67;;
15246;SDS011;7726;48.820;9.248;2023-02-01T03:04:22;1.43;;;1.33;;
15246;SDS011;7726;48.820;9.248;2023-02-01T03:06:52;1.67;;;1.53;;
15246;SDS011;7726;48.820;9.248;2023-02-01T03:09:20;2.23;;;1.60;;
15246;SDS011;7726;48.820;9.248;2023-02-01T03:11:49;1.80;;;1.70;;
15246;SDS011;7726;48.820;9.248;2023-02-01T03:14:35;1.67;;;1.53;;
15246;SDS011;7726;48.820;9.248;2023-02-01T03:17:04;1.70;;;1.60;;
15246;SDS011;7726;48.820;9.248;2023-02-01T03:19:35;1.60;;;1.40;;
15246;SDS011;7726;48.820;9.248;2023-02-01T03:22:05;2.73;;;1.67;;
15246;SDS011;7726;48.820;9.248;2023-02-01T03:24:34;1.77;;;1.57;;
15246;SDS011;7726;48.820;9.248;2023-02-01T03:27:05;1.70;;;1.60;;
15246;SDS011;7726;48.820;9.248;2023-02-01T03:29:34;1.50;;;1.40;;
15246;SDS011;7726;48.820;9.248;2023-02-01T03:32:04;1.73;;;1.63;;
15246;SDS011;7726;48.820;9.248;2023-02-01T03:34:31;1.67;;;1.57;;
15246;SDS011;7726;48.820;9.248;2023-02-01T03:36:59;1.60;;;1.50;;
15246;SDS011;7726;48.820;9.248;2023-02-01T03:39:31;1.93;;;1.50;;
15246;SDS011;7726;48.820;9.248;2023-02-01T03:41:59;1.80;;;1.70;;
15246;SDS011;7726;48.820;9.248;2023-02-01T03:44:29;1.87;;;1.73;;
15246;SDS011;7726;48.820;9.248;2023-02-01T03:46:58;1.40;;;1.30;;
15246;SDS011;7726;48.820;9.248;2023-02-01T03:49:29;1.50;;;1.40;;
15246;SDS011;7726;48.820;9.248;2023-02-01T03:51:58;1.30;;;1.20;;
15246;SDS011;7726;48.820;9.248;2023-02-01T03:54:25;1.60;;;1.50;;
15246;SDS011;7726;48.820;9.248;2023-02-01T03:56:55;1.57;;;1.47;;
15246;SDS011;7726;48.820;9.248;2023-02-01T03:59:23;1.57;;;1.47;;
15246;SDS011;7726;48.820;9.248;2023-02-01T04:01:50;1.60;;;1.50;;
15246;SDS011;7726;48.820;9.248;2023-02-01T04:04:18;1.50;;;1.40;;
15246;SDS011;7726;48.820;9.248;2023-02-01T04:06:45;2.00;;;1.90;;
15246;SDS011;7726;48.820;9.248;2023-02-01T04:09:12;1.80;;;1.60;;
15246;SDS011;7726;48.820;9.248;2023-02-01T04:11:40;1.60;;;1.50;;
15246;SDS011;7726;48.820;9.248;2023-02-01T04:14:08;1.73;;;1.63;;
15246;SDS011;7726;48.820;9.248;2023-02-01T04:16:35;1.50;;;1.40;;
15246;SDS011;7726;48.820;9.248;2023-02-01T04:19:03;1.60;;;1.50;;
15246;SDS011;7726;48.820;9.248;2023-02-01T04:21:30;1.80;;;1.70;;
15246;SDS011;7726;48.820;9.248;2023-02-01T04:23:57;1.73;;;1.57;;
15246;SDS011;7726;48.820;9.248;2023-02-01T04:26:24;1.60;;;1.50;;
15246;SDS011;7726;48.820;9.248;2023-02-01T04:28:51;1.67;;;1.57;;
15246;SDS011;7726;48.820;9.248;2023-02-01T04:31:20;2.77;;;1.70;;
15246;SDS011;7726;48.820;9.248;2023-02-01T04:33:50;1.63;;;1.50;;
15246;SDS011;7726;48.820;9.248;2023-02-01T04:36:18;1.50;;;1.40;;
15246;SDS011;7726;48.820;9.248;2023-02-01T04:38:46;1.57;;;1.40;;
15246;SDS011;7726;48.820;9.248;2023-02-01T04:41:13;1.70;;;1.60;;
15246;SDS011;7726;48.820;9.248;2023-02-01T04:43:43;2.03;;;1.77;;
15246;SDS011;7726;48.820;9.248;2023-02-01T04:46:10;2.13;;;1.80;;
15246;SDS011;7726;48.820;9.248;2023-02-01T04:48:39;1.70;;;1.60;;
15246;SDS011;7726;48.820;9.248;2023-02-01T04:51:06;1.83;;;1.73;;
15246;SDS011;7726;48.820;9.248;2023-02-01T04:53:33;1.80;;;1.70;;
15246;SDS011;7726;48.820;9.248;2023-02-01T04:56:00;1.93;;;1.70;;
15246;SDS011;7726;48.820;9.248;2023-02-01T04:58:27;1.87;;;1.70;;
15246;SDS011;7726;48.820;9.248;2023-02-01T05:00:55;2.40;;;1.57;;
15246;SDS011;7726;48.820;9.248;2023-02-01T05:03:22;2.07;;;1.80;;
15246;SDS011;7726;48.820;9.248;2023-02-01T05:05:50;1.53;;;1.43;;
15246;SDS011;7726;48.820;9.248;2023-02-01T05:08:18;4.13;;;1.93;;
15246;SDS011;7726;48.820;9.248;2023-02-01T05:10:47;1.97;;;1.87;;
15246;SDS011;7726;48.820;9.248;2023-02-01T05:13:14;3.33;;;1.60;;
15246;SDS011;7726;48.820;9.248;2023-02-01T05:15:59;2.47;;;2.13;;
15246;SDS011;7726;48.820;9.248;2023-02-01T05:18:26;1.80;;;1.70;;
15246;SDS011;7726;48.820;9.248;2023-02-01T05:20:55;2.03;;;1.83;;
15246;SDS011;7726;48.820;9.248;2023-02-01T05:23:22;1.80;;;1.70;;
15246;SDS011;7726;48.820;9.248;2023-02-01T05:25:49;2.00;;;1.60;;
15246;SDS011;7726;48.820;9.248;2023-02-01T05:28:16;1.87;;;1.70;;
15246;SDS011;7726;48.820;9.248;2023-02-01T05:30:43;1.67;;;1.57;;
15246;SDS011;7726;48.820;9.248;2023-02-01T05:33:10;2.07;;;1.60;;
15246;SDS011;7726;48.820;9.248;2023-02-01T05:35:38;1.90;;;1.80;;
15246;SDS011;7726;48.820;9.248;2023-02-01T05:38:06;1.60;;;1.50;;
15246;SDS011;7726;48.820;9.248;2023-02-01T05:40:33;2.00;;;1.87;;
15246;SDS011;7726;48.820;9.248;2023-02-01T05:43:00;1.90;;;1.67;;
15246;SDS011;7726;48.820;9.248;2023-02-01T05:45:27;1.87;;;1.70;;
15246;SDS011;7726;48.820;9.248;2023-02-01T05:47:55;1.97;;;1.40;;
15246;SDS011;7726;48.820;9.248;2023-02-01T05:50:22;1.83;;;1.53;;
15246;SDS011;7726;48.820;9.248;2023-02-01T05:52:49;2.40;;;1.50;;
15246;SDS011;7726;48.820;9.248;2023-02-01T05:55:17;1.43;;;1.30;;
15246;SDS011;7726;48.820;9.248;2023-02-01T05:57:44;1.93;;;1.80;;
15246;SDS011;7726;48.820;9.248;2023-02-01T06:00:12;1.70;;;1.60;;
15246;SDS011;7726;48.820;9.248;2023-02-01T06:02:39;1.60;;;1.50;;
15246;SDS011;7726;48.820;9.248;2023-02-01T06:05:07;2.00;;;1.60;;
15246;SDS011;7726;48.820;9.248;2023-02-01T06:07:34;3.23;;;1.60;;
15246;SDS011;7726;48.820;9.248;2023-02-01T06:10:02;1.90;;;1.80;;
15246;SDS011;7726;48.820;9.248;2023-02-01T06:12:31;2.13;;;1.90;;
15246;SDS011;7726;48.820;9.248;2023-02-01T06:14:58;2.23;;;2.03;;
15246;SDS011;7726;48.820;9.248;2023-02-01T06:17:25;1.70;;;1.60;;
15246;SDS011;7726;48.820;9.248;2023-02-01T06:19:52;3.17;;;1.60;;
15246;SDS011;7726;48.820;9.248;2023-02-01T06:22:19;1.47;;;1.40;;
15246;SDS011;7726;48.820;9.248;2023-02-01T06:24:47;2.63;;;1.90;;
15246;SDS011;7726;48.820;9.248;2023-02-01T06:27:14;1.77;;;1.67;;
15246;SDS011;7726;48.820;9.248;2023-02-01T06:29:43;2.03;;;1.50;;
15246;SDS011;7726;48.820;9.248;2023-02-01T06:32:10;7.90;;;2.80;;
15246;SDS011;7726;48.820;9.248;2023-02-01T06:34:37;2.20;;;1.47;;
15246;SDS011;7726;48.820;9.248;2023-02-01T06:37:04;1.47;;;1.37;;
15246;SDS011;7726;48.820;9.248;2023-02-01T06:39:31;1.57;;;1.47;;
15246;SDS011;7726;48.820;9.248;2023-02-01T06:41:58;2.07;;;1.60;;
15246;SDS011;7726;48.820;9.248;2023-02-01T06:44:26;2.10;;;1.90;;
15246;SDS011;7726;48.820;9.248;2023-02-01T06:46:54;3.60;;;1.50;;
15246;SDS011;7726;48.820;9.248;2023-02-01T06:49:21;1.60;;;1.50;;
15246;SDS011;7726;48.820;9.248;2023-02-01T06:51:49;3.60;;;1.80;;
15246;SDS011;7726;48.820;9.248;2023-02-01T06:54:16;2.03;;;1.63;;
15246;SDS011;7726;48.820;9.248;2023-02-01T06:56:43;2.47;;;1.80;;
15246;SDS011;7726;48.820;9.248;2023-02-01T06:59:10;3.40;;;1.70;;
15246;SDS011;7726;48.820;9.248;2023-02-01T07:01:38;2.00;;;1.50;;
15246;SDS011;7726;48.820;9.248;2023-02-01T07:04:06;1.70;;;1.60;;
15246;SDS011;7726;48.820;9.248;2023-02-01T07:06:36;2.50;;;1.60;;
15246;SDS011;7726;48.820;9.248;2023-02-01T07:09:04;3.87;;;1.50;;
15246;SDS011;7726;48.820;9.248;2023-02-01T07:11:31;4.00;;;1.90;;
15246;SDS011;7726;48.820;9.248;2023-02-01T07:13:58;2.70;;;1.93;;
15246;SDS011;7726;48.820;9.248;2023-02-01T07:16:25;3.27;;;1.93;;
15246;SDS011;7726;48.820;9.248;2023-02-01T07:18:54;4.17;;;2.20;;
15246;SDS011;7726;48.820;9.248;2023-02-01T07:21:22;3.87;;;1.80;;
15246;SDS011;7726;48.820;9.248;2023-02-01T07:23:49;3.73;;;1.83;;
15246;SDS011;7726;48.820;9.248;2023-02-01T07:26:16;3.73;;;1.80;;
15246;SDS011;7726;48.820;9.248;2023-02-01T07:28:43;1.93;;;1.80;;
15246;SDS011;7726;48.820;9.248;2023-02-01T07:31:12;2.40;;;1.73;;
15246;SDS011;7726;48.820;9.248;2023-02-01T07:33:43;3.13;;;1.87;;
15246;SDS011;7726;48.820;9.248;2023-02-01T07:36:11;3.33;;;1.80;;
15246;SDS011;7726;48.820;9.248;2023-02-01T07:38:40;2.50;;;1.60;;
15246;SDS011;7726;48.820;9.248;2023-02-01T07:41:08;3.43;;;1.97;;
15246;SDS011;7726;48.820;9.248;2023-02-01T07:43:35;3.60;;;2.20;;
15246;SDS011;7726;48.820;9.248;2023-02-01T07:46:03;6.33;;;2.20;;
15246;SDS011;7726;48.820;9.248;2023-02-01T07:48:31;4.90;;;2.73;;
15246;SDS011;7726;48.820;9.248;2023-02-01T07:50:59;5.77;;;2.40;;
15246;SDS011;7726;48.820;9.248;2023-02-01T07:53:26;2.73;;;2.13;;
15246;SDS011;7726;48.820;9.248;2023-02-01T07:55:55;2.70;;;2.10;;
15246;SDS011;7726;48.820;9.248;2023-02-01T07:58:22;3.60;;;2.20;;
15246;SDS011;7726;48.820;9.248;2023-02-01T08:00:50;2.40;;;1.90;;
15246;SDS011;7726;48.820;9.248;2023-02-01T08:03:35;5.10;;;2.20;;
15246;SDS011;7726;48.820;9.248;2023-02-01T08:06:02;2.27;;;1.90;;
15246;SDS011;7726;48.820;9.248;2023-02-01T08:08:30;3.10;;;2.20;;
15246;SDS011;7726;48.820;9.248;2023-02-01T08:10:58;6.60;;;2.83;;
15246;SDS011;7726;48.820;9.248;2023-02-01T08:13:26;4.53;;;2.90;;
15246;SDS011;7726;48.820;9.248;2023-02-01T08:15:57;6.13;;;2.77;;
15246;SDS011;7726;48.820;9.248;2023-02-01T08:18:24;6.17;;;2.33;;
15246;SDS011;7726;48.820;9.248;2023-02-01T08:20:51;7.13;;;2.67;;
15246;SDS011;7726;48.820;9.248;2023-02-01T08:23:20;6.23;;;3.23;;
15246;SDS011;7726;48.820;9.248;2023-02-01T08:25:47;7.10;;;3.00;;
15246;SDS011;7726;48.820;9.248;2023-02-01T08:28:15;4.97;;;2.40;;
15246;SDS011;7726;48.820;9.248;2023-02-01T08:30:42;6.90;;;2.50;;
15246;SDS011;7726;48.820;9.248;2023-02-01T08:33:10;6.13;;;2.67;;
15246;SDS011;7726;48.820;9.248;2023-02-01T08:35:37;5.97;;;2.70;;
15246;SDS011;7726;48.820;9.248;2023-02-01T08:38:04;3.87;;;2.23;;
15246;SDS011;7726;48.820;9.248;2023-02-01T08:40:31;6.27;;;2.47;;
15246;SDS011;7726;48.820;9.248;2023-02-01T08:42:58;8.23;;;1.97;;
15246;SDS011;7726;48.820;9.248;2023-02-01T08:45:28;5.43;;;2.63;;
15246;SDS011;7726;48.820;9.248;2023-02-01T08:47:55;6.53;;;2.47;;
15246;SDS011;7726;48.820;9.248;2023-02-01T08:50:23;6.70;;;2.57;;
15246;SDS011;7726;48.820;9.248;2023-02-01T08:52:50;4.33;;;2.37;;
15246;SDS011;7726;48.820;9.248;2023-02-01T08:55:18;4.63;;;1.80;;
15246;SDS011;7726;48.820;9.248;2023-02-01T08:57:45;7.27;;;2.77;;
15246;SDS011;7726;48.820;9.248;2023-02-01T09:00:13;5.13;;;2.30;;
15246;SDS011;7726;48.820;9.248;2023-02-01T09:02:42;3.60;;;2.17;;
15246;SDS011;7726;48.820;9.248;2023-02-01T09:05:09;4.37;;;2.20;;
15246;SDS011;7726;48.820;9.248;2023-02-01T09:07:36;5.80;;;2.93;;
15246;SDS011;7726;48.820;9.248;2023-02-01T09:10:04;6.00;;;2.63;;
15246;SDS011;7726;48.820;9.248;2023-02-01T09:12:32;6.43;;;2.43;;
15246;SDS011;7726;48.820;9.248;2023-02-01T09:14:59;7.87;;;2.30;;
15246;SDS011;7726;48.820;9.248;2023-02-01T09:17:27;5.07;;;1.97;;
15246;SDS011;7726;48.820;9.248;2023-02-01T09:19:55;6.13;;;2.03;;
15246;SDS011;7726;48.820;9.248;2023-02-01T09:22:23;6.40;;;2.20;;
15246;SDS011;7726;48.820;9.248;2023-02-01T09:24:50;6.20;;;2.50;;
15246;SDS011;7726;48.820;9.248;2023-02-01T09:27:18;3.87;;;2.30;;
15246;SDS011;7726;48.820;9.248;2023-02-01T09:29:45;7.13;;;2.60;;
15246;SDS011;7726;48.820;9.248;2023-02-01T09:32:17;5.00;;;2.17;;
15246;SDS011;7726;48.820;9.248;2023-02-01T09:34:44;8.50;;;2.20;;
15246;SDS011;7726;48.820;9.248;2023-02-01T09:37:12;5.90;;;2.37;;
15246;SDS011;7726;48.820;9.248;2023-02-01T09:39:40;6.23;;;2.57;;
15246;SDS011;7726;48.820;9.248;2023-02-01T09:42:12;7.00;;;2.23;;
15246;SDS011;7726;48.820;9.248;2023-02-01T09:44:45;7.27;;;2.40;;
15246;SDS011;7726;48.820;9.248;2023-02-01T09:47:15;9.43;;;2.57;;
15246;SDS011;7726;48.820;9.248;2023-02-01T09:49:45;5.10;;;1.90;;
15246;SDS011;7726;48.820;9.248;2023-02-01T09:52:16;8.53;;;2.37;;
15246;SDS011;7726;48.820;9.248;2023-02-01T09:54:47;6.43;;;2.27;;
15246;SDS011;7726;48.820;9.248;2023-02-01T09:57:16;11.40;;;2.87;;
15246;SDS011;7726;48.820;9.248;2023-02-01T09:59:46;4.57;;;2.03;;
15246;SDS011;7726;48.820;9.248;2023-02-01T10:02:16;6.33;;;2.20;;
15246;SDS011;7726;48.820;9.248;2023-02-01T10:04:44;7.47;;;2.43;;
15246;SDS011;7726;48.820;9.248;2023-02-01T10:07:19;8.50;;;2.63;;
15246;SDS011;7726;48.820;9.248;2023-02-01T10:09:50;10.33;;;2.73;;
15246;SDS011;7726;48.820;9.248;2023-02-01T10:15:02;9.57;;;2.43;;
15246;SDS011;7726;48.820;9.248;2023-02-01T10:17:37;6.23;;;2.13;;
15246;SDS011;7726;48.820;9.248;2023-02-01T10:20:10;9.67;;;2.97;;
15246;SDS011;7726;48.820;9.248;2023-02-01T10:22:42;11.53;;;2.30;;
15246;SDS011;7726;48.820;9.248;2023-02-01T10:25:13;6.73;;;2.50;;
15246;SDS011;7726;48.820;9.248;2023-02-01T10:27:40;12.30;;;2.70;;
15246;SDS011;7726;48.820;9.248;2023-02-01T10:30:14;8.50;;;2.50;;
15246;SDS011;7726;48.820;9.248;2023-02-01T10:32:42;5.47;;;2.23;;
15246;SDS011;7726;48.820;9.248;2023-02-01T10:35:12;7.70;;;2.20;;
15246;SDS011;7726;48.820;9.248;2023-02-01T10:37:42;11.77;;;3.53;;
15246;SDS011;7726;48.820;9.248;2023-02-01T10:40:12;5.77;;;2.20;;
15246;SDS011;7726;48.820;9.248;2023-02-01T10:42:41;6.13;;;2.23;;
15246;SDS011;7726;48.820;9.248;2023-02-01T10:45:11;7.80;;;2.27;;
15246;SDS011;7726;48.820;9.248;2023-02-01T10:47:39;5.27;;;2.20;;
15246;SDS011;7726;48.820;9.248;2023-02-01T10:50:10;6.63;;;2.33;;
15246;SDS011;7726;48.820;9.248;2023-02-01T10:52:43;9.77;;;2.27;;
15246;SDS011;7726;48.820;9.248;2023-02-01T10:55:25;6.47;;;1.90;;
15246;SDS011;7726;48.820;9.248;2023-02-01T10:57:55;9.60;;;2.77;;
15246;SDS011;7726;48.820;9.248;2023-02-01T11:00:22;11.63;;;2.40;;
15246;SDS011;7726;48.820;9.248;2023-02-01T11:02:49;9.27;;;2.53;;
15246;SDS011;7726;48.820;9.248;2023-02-01T11:05:17;9.57;;;2.50;;
15246;SDS011;7726;48.820;9.248;2023-02-01T11:07:48;10.70;;;2.40;;
15246;SDS011;7726;48.820;9.248;2023-02-01T11:12:59;6.97;;;2.27;;
15246;SDS011;7726;48.820;9.248;2023-02-01T11:15:28;6.57;;;1.87;;
15246;SDS011;7726;48.820;9.248;2023-02-01T11:17:55;6.50;;;1.93;;
15246;SDS011;7726;48.820;9.248;2023-02-01T11:20:33;12.13;;;2.80;;
15246;SDS011;7726;48.820;9.248;2023-02-01T11:23:03;11.27;;;2.87;;
15246;SDS011;7726;48.820;9.248;2023-02-01T11:25:36;7.63;;;2.63;;
15246;SDS011;7726;48.820;9.248;2023-02-01T11:28:04;7.70;;;2.37;;
15246;SDS011;7726;48.820;9.248;2023-02-01T11:30:32;10.63;;;2.60;;
15246;SDS011;7726;48.820;9.248;2023-02-01T11:33:00;8.03;;;2.87;;
15246;SDS011;7726;48.820;9.248;2023-02-01T11:35:28;6.77;;;1.90;;
15246;SDS011;7726;48.820;9.248;2023-02-01T11:37:56;9.77;;;2.40;;
15246;SDS011;7726;48.820;9.248;2023-02-01T11:40:27;7.30;;;2.50;;
15246;SDS011;7726;48.820;9.248;2023-02-01T11:42:55;7.77;;;2.37;;
15246;SDS011;7726;48.820;9.248;2023-02-01T11:45:26;8.77;;;2.07;;
15246;SDS011;7726;48.820;9.248;2023-02-01T11:47:54;7.93;;;2.07;;
15246;SDS011;7726;48.820;9.248;2023-02-01T11:50:25;7.93;;;2.23;;
15246;SDS011;7726;48.820;9.248;2023-02-01T11:53:00;4.97;;;2.20;;
15246;SDS011;7726;48.820;9.248;2023-02-01T11:55:37;9.07;;;2.10;;
15246;SDS011;7726;48.820;9.248;2023-02-01T11:58:11;3.63;;;1.93;;
15246;SDS011;7726;48.820;9.248;2023-02-01T12:06:21;5.77;;;2.03;;
15246;SDS011;7726;48.820;9.248;2023-02-01T12:09:01;6.27;;;2.20;;
15246;SDS011;7726;48.820;9.248;2023-02-01T12:11:43;3.23;;;1.60;;
15246;SDS011;7726;48.820;9.248;2023-02-01T12:14:18;6.90;;;2.10;;
15246;SDS011;7726;48.820;9.248;2023-02-01T12:16:53;6.33;;;2.00;;
15246;SDS011;7726;48.820;9.248;2023-02-01T12:19:28;6.70;;;1.80;;
15246;SDS011;7726;48.820;9.248;2023-02-01T12:22:03;7.43;;;1.93;;
15246;SDS011;7726;48.820;9.248;2023-02-01T12:24:37;5.60;;;1.83;;
15246;SDS011;7726;48.820;9.248;2023-02-01T12:27:11;4.73;;;2.27;;
15246;SDS011;7726;48.820;9.248;2023-02-01T12:29:48;10.57;;;2.33;;
15246;SDS011;7726;48.820;9.248;2023-02-01T12:32:22;9.50;;;2.37;;
15246;SDS011;7726;48.820;9.248;2023-02-01T12:35:13;8.60;;;2.40;;
15246;SDS011;7726;48.820;9.248;2023-02-01T12:37:53;9.97;;;2.37;;
15246;SDS011;7726;48.820;9.248;2023-02-01T12:40:37;5.30;;;1.50;;
15246;SDS011;7726;48.820;9.248;2023-02-01T12:43:11;6.97;;;2.20;;
15246;SDS011;7726;48.820;9.248;2023-02-01T12:45:42;5.63;;;2.00;;
15246;SDS011;7726;48.820;9.248;2023-02-01T12:48:19;6.50;;;1.90;;
15246;SDS011;7726;48.820;9.248;2023-02-01T12:50:50;5.67;;;2.10;;
15246;SDS011;7726;48.820;9.248;2023-02-01T12:53:19;8.10;;;1.90;;
15246;SDS011;7726;48.820;9.248;2023-02-01T12:55:50;7.73;;;1.93;;
15246;SDS011;7726;48.820;9.248;2023-02-01T12:58:21;6.77;;;1.87;;
15246;SDS011;7726;48.820;9.248;2023-02-01T13:00:51;7.17;;;1.83;;
15246;SDS011;7726;48.820;9.248;2023-02-01T13:03:22;6.37;;;2.30;;
15246;SDS011;7726;48.820;9.248;2023-02-01T13:05:53;5.87;;;2.00;;
15246;SDS011;7726;48.820;9.248;2023-02-01T13:08:22;5.60;;;1.90;;
15246;SDS011;7726;48.820;9.248;2023-02-01T13:10:51;9.63;;;2.30;;
15246;SDS011;7726;48.820;9.248;2023-02-01T13:13:22;5.20;;;2.00;;
15246;SDS011;7726;48.820;9.248;2023-02-01T13:15:51;9.67;;;2.53;;
15246;SDS011;7726;48.820;9.248;2023-02-01T13:18:23;7.40;;;2.03;;
15246;SDS011;7726;48.820;9.248;2023-02-01T13:20:53;9.50;;;3.00;;
15246;SDS011;7726;48.820;9.248;2023-02-01T13:23:24;7.97;;;2.73;;
15246;SDS011;7726;48.820;9.248;2023-02-01T13:25:52;12.30;;;3.20;;
15246;SDS011;7726;48.820;9.248;2023-02-01T13:28:24;7.63;;;2.93;;
15246;SDS011;7726;48.820;9.248;2023-02-01T13:30:57;10.60;;;2.40;;
15246;SDS011;7726;48.820;9.248;2023-02-01T13:36:30;9.93;;;3.50;;
15246;SDS011;7726;48.820;9.248;2023-02-01T13:39:17;8.17;;;2.73;;
15246;SDS011;7726;48.820;9.248;2023-02-01T13:41:51;8.40;;;3.13;;
15246;SDS011;7726;48.820;9.248;2023-02-01T13:44:21;6.83;;;2.70;;
15246;SDS011;7726;48.820;9.248;2023-02-01T13:46:51;8.00;;;2.53;;
15246;SDS011;7726;48.820;9.248;2023-02-01T13:49:23;11.67;;;2.90;;
15246;SDS011;7726;48.820;9.248;2023-02-01T13:51:51;8.43;;;3.03;;
15246;SDS011;7726;48.820;9.248;2023-02-01T13:54:23;6.73;;;2.73;;
15246;SDS011;7726;48.820;9.248;2023-02-01T13:56:52;7.23;;;2.27;;
15246;SDS011;7726;48.820;9.248;2023-02-01T14:04:54;10.60;;;2.70;;
15246;SDS011;7726;48.820;9.248;2023-02-01T14:07:22;7.10;;;2.23;;
15246;SDS011;7726;48.820;9.248;2023-02-01T14:09:49;8.07;;;2.67;;
15246;SDS011;7726;48.820;9.248;2023-02-01T14:15:18;7.67;;;3.20;;
15246;SDS011;7726;48.820;9.248;2023-02-01T14:17:47;4.50;;;2.30;;
15246;SDS011;7726;48.820;9.248;2023-02-01T14:23:16;6.37;;;2.47;;
15246;SDS011;7726;48.820;9.248;2023-02-01T14:25:44;5.00;;;2.00;;
15246;SDS011;7726;48.820;9.248;2023-02-01T14:28:12;10.73;;;2.50;;
15246;SDS011;7726;48.820;9.248;2023-02-01T14:30:41;7.03;;;2.50;;
15246;SDS011;7726;48.820;9.248;2023-02-01T14:33:14;8.33;;;3.27;;
15246;SDS011;7726;48.820;9.248;2023-02-01T14:36:00;8.80;;;2.60;;
15246;SDS011;7726;48.820;9.248;2023-02-01T14:38:30;9.47;;;2.50;;
15246;SDS011;7726;48.820;9.248;2023-02-01T14:41:10;9.50;;;2.50;;
15246;SDS011;7726;48.820;9.248;2023-02-01T14:43:49;8.43;;;3.03;;
15246;SDS011;7726;48.820;9.248;2023-02-01T14:46:17;7.70;;;2.47;;
15246;SDS011;7726;48.820;9.248;2023-02-01T14:48:45;7.67;;;2.43;;
15246;SDS011;7726;48.820;9.248;2023-02-01T14:51:14;7.17;;;2.40;;
15246;SDS011;7726;48.820;9.248;2023-02-01T14:53:44;6.53;;;2.13;;
15246;SDS011;7726;48.820;9.248;2023-02-01T14:56:13;7.87;;;2.10;;
15246;SDS011;7726;48.820;9.248;2023-02-01T14:58:42;11.13;;;2.40;;
15246;SDS011;7726;48.820;9.248;2023-02-01T15:01:15;8.43;;;2.50;;
15246;SDS011;7726;48.820;9.248;2023-02-01T15:03:46;8.70;;;2.47;;
15246;SDS011;7726;48.820;9.248;2023-02-01T15:06:23;5.93;;;2.40;;
15246;SDS011;7726;48.820;9.248;2023-02-01T15:08:53;8.13;;;2.40;;
15246;SDS011;7726;48.820;9.248;2023-02-01T15:11:21;7.87;;;2.10;;
15246;SDS011;7726;48.820;9.248;2023-02-01T15:13:48;6.07;;;2.33;;
15246;SDS011;7726;48.820;9.248;2023-02-01T15:16:18;6.50;;;2.23;;
15246;SDS011;7726;48.820;9.248;2023-02-01T15:18:47;5.97;;;2.50;;
15246;SDS011;7726;48.820;9.248;2023-02-01T15:21:15;5.80;;;2.10;;
15246;SDS011;7726;48.820;9.248;2023-02-01T15:23:42;7.30;;;2.23;;
15246;SDS011;7726;48.820;9.248;2023-02-01T15:26:25;4.57;;;1.57;;
15246;SDS011;7726;48.820;9.248;2023-02-01T15:28:52;8.90;;;2.37;;
15246;SDS011;7726;48.820;9.248;2023-02-01T15:31:30;8.53;;;2.47;;
15246;SDS011;7726;48.820;9.248;2023-02-01T15:33:58;5.77;;;2.00;;
15246;SDS011;7726;48.820;9.248;2023-02-01T15:36:25;7.53;;;2.17;;
15246;SDS011;7726;48.820;9.248;2023-02-01T15:41:37;7.80;;;2.37;;
15246;SDS011;7726;48.820;9.248;2023-02-01T15:44:17;4.77;;;2.20;;
15246;SDS011;7726;48.820;9.248;2023-02-01T15:46:45;9.73;;;2.20;;
15246;SDS011;7726;48.820;9.248;2023-02-01T15:49:21;9.20;;;2.17;;
15246;SDS011;7726;48.820;9.248;2023-02-01T15:51:50;5.37;;;2.20;;